Time;durP1;ratioP1;P1;durP2;ratioP2;P2;SDS_P1;SDS_P2;PMS_P1;PMS_P2;Temp;Humidity;BMP_temperature;BMP_pressure;BME280_temperature;BME280_humidity;BME280_pressure;Samples;Min_cycle;Max_cycle;Signal;HPM_P1;HPM_P2
2021/01/12 00:02:26;;;;;;;28.08;19.83;;;0.30;99.90;;;;;;5010823;28;20206;-25
2021/01/12 00:04:53;;;;;;;29.33;21.13;;;0.30;99.90;;;;;;5011207;28;20246;-25
2021/01/12 00:07:20;;;;;;;28.90;20.75;;;0.30;99.90;;;;;;5011689;28;20281;-26
2021/01/12 00:09:47;;;;;;;34.70;22.83;;;0.30;99.90;;;;;;5011074;28;20631;-26
2021/01/12 00:12:14;;;;;;;25.65;20.48;;;0.30;99.90;;;;;;5010589;28;20217;-26
2021/01/12 00:14:40;;;;;;;33.67;19.48;;;0.40;99.90;;;;;;5010083;28;20197;-26
2021/01/12 00:17:08;;;;;;;32.25;22.40;;;0.40;99.90;;;;;;5010401;28;20198;-26
2021/01/12 00:19:36;;;;;;;27.75;20.15;;;0.50;99.90;;;;;;5010465;28;20736;-26
2021/01/12 00:22:07;;;;;;;27.00;19.30;;;0.50;99.90;;;;;;5010837;28;20650;-26
2021/01/12 00:24:34;;;;;;;28.73;20.42;;;0.60;99.90;;;;;;5010059;28;20214;-26
2021/01/12 00:27:01;;;;;;;25.92;19.83;;;0.70;99.90;;;;;;5011168;28;20225;-25
2021/01/12 00:29:28;;;;;;;29.48;20.75;;;0.60;99.90;;;;;;5011684;28;20289;-24
2021/01/12 00:31:55;;;;;;;22.85;19.00;;;0.60;99.90;;;;;;5009972;28;20198;-25
2021/01/12 00:34:21;;;;;;;29.13;20.27;;;0.60;99.90;;;;;;5009507;28;20213;-25
2021/01/12 00:36:51;;;;;;;31.67;20.88;;;0.50;99.90;;;;;;5009910;28;20305;-25
2021/01/12 00:39:18;;;;;;;29.33;20.88;;;0.50;99.90;;;;;;5011358;28;20201;-25
2021/01/12 00:41:47;;;;;;;25.65;19.20;;;0.60;99.90;;;;;;5010213;28;20205;-25
2021/01/12 00:44:14;;;;;;;33.53;20.20;;;0.50;99.90;;;;;;5010647;28;20214;-25
2021/01/12 00:46:43;;;;;;;29.05;20.00;;;0.60;99.90;;;;;;5009546;28;20562;-25
2021/01/12 00:49:10;;;;;;;23.85;18.38;;;0.50;99.90;;;;;;5010178;28;20703;-25
2021/01/12 00:51:38;;;;;;;27.70;20.73;;;0.50;99.90;;;;;;5009396;28;20660;-25
2021/01/12 00:54:06;;;;;;;27.17;19.67;;;0.40;99.90;;;;;;5010161;28;20194;-25
2021/01/12 00:56:34;;;;;;;26.17;20.35;;;0.40;99.90;;;;;;5009571;28;20198;-25
2021/01/12 00:59:01;;;;;;;29.05;19.92;;;0.40;99.90;;;;;;5009887;28;20210;-25
2021/01/12 01:01:28;;;;;;;27.85;20.48;;;0.40;99.90;;;;;;5009698;28;20202;-26
2021/01/12 01:03:55;;;;;;;28.25;20.85;;;0.30;99.90;;;;;;5009210;28;20225;-25
2021/01/12 01:06:22;;;;;;;26.17;18.98;;;0.30;99.90;;;;;;4992057;28;20761;-25
2021/01/12 01:08:49;;;;;;;28.45;19.33;;;0.20;99.90;;;;;;5009162;28;20209;-25
2021/01/12 01:11:17;;;;;;;30.70;19.52;;;0.20;99.90;;;;;;5009914;28;20492;-25
2021/01/12 01:13:44;;;;;;;26.70;19.05;;;0.20;99.90;;;;;;5009544;28;20202;-25
2021/01/12 01:16:11;;;;;;;28.05;18.13;;;0.20;99.90;;;;;;5008732;28;20205;-25
2021/01/12 01:18:38;;;;;;;27.25;19.00;;;0.30;99.90;;;;;;5009195;28;20198;-26
2021/01/12 01:21:05;;;;;;;25.88;19.20;;;0.30;99.90;;;;;;4991142;28;20509;-26
2021/01/12 01:23:32;;;;;;;23.77;17.63;;;0.30;99.90;;;;;;5009921;28;20334;-26
2021/01/12 01:25:59;;;;;;;28.02;18.85;;;0.20;99.90;;;;;;5009751;28;20202;-26
2021/01/12 01:28:26;;;;;;;25.13;18.10;;;0.20;99.90;;;;;;5009910;28;20268;-26
2021/01/12 01:30:54;;;;;;;23.58;17.50;;;0.30;99.90;;;;;;5009670;28;20233;-26
2021/01/12 01:33:21;;;;;;;24.15;17.30;;;0.40;99.90;;;;;;5009822;28;20777;-26
2021/01/12 01:35:49;;;;;;;29.80;19.63;;;0.50;99.90;;;;;;5008667;28;20649;-26
2021/01/12 01:38:15;;;;;;;21.67;17.40;;;0.60;99.90;;;;;;5009719;28;20285;-26
2021/01/12 01:40:42;;;;;;;21.48;17.73;;;0.60;99.90;;;;;;5009553;28;20505;-26
2021/01/12 01:43:15;;;;;;;21.25;16.02;;;0.70;99.90;;;;;;5010148;28;20329;-26
2021/01/12 01:45:43;;;;;;;22.42;17.30;;;0.70;99.90;;;;;;5010264;28;20217;-26
2021/01/12 01:48:10;;;;;;;19.50;16.73;;;0.70;99.90;;;;;;5009434;28;20209;-26
2021/01/12 01:50:37;;;;;;;21.30;17.58;;;0.80;99.90;;;;;;5008616;28;20940;-26
2021/01/12 01:53:03;;;;;;;19.20;16.35;;;0.70;99.90;;;;;;5009692;28;20256;-26
2021/01/12 01:55:31;;;;;;;22.08;16.95;;;0.70;99.90;;;;;;4992242;28;20202;-25
2021/01/12 01:58:00;;;;;;;23.25;16.70;;;0.70;99.90;;;;;;5011147;28;20364;-26
2021/01/12 02:00:27;;;;;;;23.05;16.88;;;0.60;99.90;;;;;;5012802;28;20202;-25
2021/01/12 02:03:05;;;;;;;21.45;16.73;;;0.50;99.90;;;;;;5011474;28;20202;-25
2021/01/12 02:05:34;;;;;;;22.30;16.17;;;0.50;99.90;;;;;;5012442;28;20222;-25
2021/01/12 02:08:07;;;;;;;22.40;17.05;;;0.50;99.90;;;;;;5014374;28;20198;-25
2021/01/12 02:10:39;;;;;;;19.02;16.05;;;0.50;99.90;;;;;;5013604;28;20205;-25
2021/01/12 02:13:06;;;;;;;21.63;15.07;;;0.60;99.90;;;;;;5013077;28;20527;-25
2021/01/12 02:15:34;;;;;;;18.27;14.45;;;0.60;99.90;;;;;;5012294;28;20233;-26
2021/01/12 02:18:02;;;;;;;22.30;15.30;;;0.70;99.90;;;;;;5013397;28;20682;-26
2021/01/12 02:20:29;;;;;;;18.20;15.60;;;0.80;99.90;;;;;;5013783;28;20206;-25
2021/01/12 02:23:06;;;;;;;20.23;14.02;;;0.80;99.90;;;;;;5012935;28;20186;-24
2021/01/12 02:25:38;;;;;;;24.27;15.48;;;0.80;99.90;;;;;;5012654;28;20197;-25
2021/01/12 02:28:07;;;;;;;23.02;16.83;;;0.80;99.90;;;;;;5012148;28;20209;-25
2021/01/12 02:30:34;;;;;;;16.17;14.40;;;0.90;99.90;;;;;;5013786;28;20648;-25
2021/01/12 02:33:01;;;;;;;19.95;15.35;;;1.00;99.90;;;;;;5012377;28;20464;-24
2021/01/12 02:35:30;;;;;;;18.00;14.68;;;1.10;99.90;;;;;;5011595;28;20324;-25
2021/01/12 02:37:57;;;;;;;20.57;15.90;;;1.20;99.90;;;;;;5012209;28;20505;-25
2021/01/12 02:40:25;;;;;;;18.40;15.45;;;1.30;99.90;;;;;;5012996;28;20439;-25
2021/01/12 02:42:53;;;;;;;19.40;16.40;;;1.30;99.90;;;;;;5011627;28;20214;-25
2021/01/12 02:45:20;;;;;;;21.03;16.03;;;1.30;99.90;;;;;;5012326;28;20217;-25
2021/01/12 02:47:47;;;;;;;21.92;16.27;;;1.40;99.90;;;;;;5012268;28;20578;-25
2021/01/12 02:50:15;;;;;;;18.30;14.03;;;1.40;99.90;;;;;;5012846;28;20276;-25
2021/01/12 02:52:42;;;;;;;22.43;17.27;;;1.50;99.90;;;;;;5013705;28;20435;-25
2021/01/12 02:55:11;;;;;;;19.90;15.60;;;1.40;99.90;;;;;;5011451;28;20490;-25
2021/01/12 02:57:37;;;;;;;18.70;15.20;;;1.50;99.90;;;;;;5013305;28;20490;-25
2021/01/12 03:00:07;;;;;;;22.33;15.70;;;1.50;99.90;;;;;;5013101;28;20440;-24
2021/01/12 03:02:35;;;;;;;20.50;16.70;;;1.50;99.90;;;;;;4994528;28;20451;-24
2021/01/12 03:05:01;;;;;;;17.17;14.70;;;1.50;99.90;;;;;;5011540;28;21102;-26
2021/01/12 03:07:28;;;;;;;20.67;14.40;;;1.50;99.90;;;;;;5012036;28;20443;-26
2021/01/12 03:09:54;;;;;;;21.30;16.53;;;1.50;99.90;;;;;;5012335;28;20604;-26
2021/01/12 03:12:21;;;;;;;19.50;15.10;;;1.50;99.90;;;;;;5012065;28;20495;-26
2021/01/12 03:14:47;;;;;;;18.90;14.43;;;1.50;99.90;;;;;;5011919;28;20281;-26
2021/01/12 03:17:15;;;;;;;15.80;13.17;;;1.60;99.90;;;;;;5013232;28;20448;-26
2021/01/12 03:19:42;;;;;;;16.03;13.23;;;1.60;99.90;;;;;;5013297;28;20440;-26
2021/01/12 03:22:09;;;;;;;17.08;13.02;;;1.60;99.90;;;;;;5015152;28;20447;-24
2021/01/12 03:24:36;;;;;;;14.27;12.38;;;1.70;99.90;;;;;;5012986;28;20229;-25
2021/01/12 03:27:03;;;;;;;11.77;10.55;;;1.70;99.90;;;;;;5012540;28;20213;-26
2021/01/12 03:29:30;;;;;;;12.57;10.90;;;1.70;99.90;;;;;;5013163;28;20611;-26
2021/01/12 03:31:57;;;;;;;13.57;11.03;;;1.80;99.90;;;;;;5012607;28;20432;-26
2021/01/12 03:34:24;;;;;;;14.37;12.07;;;1.80;99.90;;;;;;5012227;28;20470;-26
2021/01/12 03:36:51;;;;;;;13.27;12.00;;;1.80;99.90;;;;;;5011470;28;20467;-26
2021/01/12 03:39:18;;;;;;;16.30;12.87;;;1.80;99.90;;;;;;5011498;28;20478;-26
2021/01/12 03:41:44;;;;;;;14.37;12.87;;;1.90;99.90;;;;;;5012740;28;20752;-26
2021/01/12 03:44:11;;;;;;;12.20;10.90;;;1.90;99.90;;;;;;5012433;28;20605;-26
2021/01/12 03:52:31;;;;;;;13.23;10.57;;;1.90;99.90;;;;;;5009202;28;20441;-26
2021/01/12 03:54:58;;;;;;;12.27;11.03;;;1.90;99.90;;;;;;5010791;28;20443;-26
2021/01/12 03:57:24;;;;;;;11.70;10.50;;;2.00;99.90;;;;;;5009986;28;20451;-26
2021/01/12 03:59:51;;;;;;;14.43;10.17;;;2.00;99.90;;;;;;5009603;28;20475;-26
2021/01/12 04:02:17;;;;;;;10.60;9.50;;;2.10;99.90;;;;;;5010102;28;20544;-26
2021/01/12 04:04:46;;;;;;;9.70;8.80;;;2.10;99.90;;;;;;5010710;28;20546;-26
2021/01/12 04:07:12;;;;;;;9.70;8.70;;;2.20;99.90;;;;;;5010357;28;20441;-26
2021/01/12 04:09:40;;;;;;;11.80;8.97;;;2.20;99.90;;;;;;5010940;28;20459;-26
2021/01/12 04:12:09;;;;;;;9.43;8.43;;;2.20;99.90;;;;;;5010393;28;20469;-26
2021/01/12 04:14:35;;;;;;;9.67;8.70;;;2.20;99.90;;;;;;5010661;28;20439;-26
2021/01/12 04:17:02;;;;;;;9.17;8.10;;;2.20;99.90;;;;;;5010686;28;20444;-26
2021/01/12 04:19:28;;;;;;;9.00;7.80;;;2.20;99.90;;;;;;5010443;28;21070;-26
2021/01/12 04:21:56;;;;;;;7.80;7.07;;;2.30;99.90;;;;;;5010638;28;20463;-26
2021/01/12 04:24:22;;;;;;;7.77;7.07;;;2.30;99.90;;;;;;5010434;28;20471;-26
2021/01/12 04:26:49;;;;;;;7.03;6.27;;;2.40;99.90;;;;;;5009775;28;20462;-26
2021/01/12 04:29:15;;;;;;;7.50;6.67;;;2.40;99.90;;;;;;5009957;28;21197;-26
2021/01/12 04:31:42;;;;;;;6.93;6.40;;;2.50;99.90;;;;;;5011576;28;20443;-26
2021/01/12 04:34:08;;;;;;;7.20;6.50;;;2.50;99.90;;;;;;5010214;28;20447;-26
2021/01/12 04:36:35;;;;;;;6.30;5.90;;;2.60;99.90;;;;;;5010380;28;20444;-26
2021/01/12 04:39:03;;;;;;;6.27;5.70;;;2.60;99.90;;;;;;5009470;28;20454;-26
2021/01/12 04:41:30;;;;;;;5.43;5.13;;;2.60;99.90;;;;;;5009816;28;20940;-26
2021/01/12 04:43:56;;;;;;;6.60;6.00;;;2.70;99.90;;;;;;5010549;28;20463;-26
2021/01/12 04:46:23;;;;;;;5.90;5.50;;;2.80;99.90;;;;;;5009525;28;21091;-26
2021/01/12 04:48:50;;;;;;;6.80;6.20;;;2.80;99.90;;;;;;5009591;28;20460;-26
2021/01/12 04:51:16;;;;;;;6.07;5.67;;;2.80;99.90;;;;;;5016684;28;20474;-26
2021/01/12 04:53:47;;;;;;;7.20;5.90;;;2.90;99.90;;;;;;5029589;28;20446;-26
2021/01/12 04:56:14;;;;;;;5.90;5.30;;;2.90;99.90;;;;;;5028277;28;20446;-26
2021/01/12 04:58:42;;;;;;;5.67;5.27;;;2.90;99.90;;;;;;5027731;28;20982;-26
2021/01/12 05:01:11;;;;;;;6.00;5.60;;;3.00;99.90;;;;;;5027027;28;21191;-26
2021/01/12 05:03:42;;;;;;;5.50;5.10;;;3.10;99.90;;;;;;5028704;28;20502;-26
2021/01/12 05:06:10;;;;;;;5.67;5.17;;;3.20;99.90;;;;;;5027936;28;20516;-26
2021/01/12 05:08:40;;;;;;;5.77;5.37;;;3.20;99.90;;;;;;5028244;28;20446;-26
2021/01/12 05:11:07;;;;;;;4.93;4.63;;;3.20;99.90;;;;;;5029749;28;20445;-26
2021/01/12 05:13:35;;;;;;;4.90;4.50;;;3.30;99.90;;;;;;5026810;28;20458;-26
2021/01/12 05:16:08;;;;;;;10.57;7.83;;;3.30;99.90;;;;;;5025307;28;20474;-26
2021/01/12 05:18:38;;;;;;;24.67;13.43;;;3.30;99.90;;;;;;5027602;28;20439;-26
2021/01/12 05:21:06;;;;;;;30.10;13.97;;;3.30;99.90;;;;;;5025859;28;20445;-26
2021/01/12 05:23:50;;;;;;;12.07;10.67;;;3.40;99.90;;;;;;5024352;28;20463;-26
2021/01/12 05:26:18;;;;;;;9.80;8.80;;;3.40;99.90;;;;;;5026159;28;20438;-26
2021/01/12 05:28:47;;;;;;;6.07;5.73;;;3.50;99.90;;;;;;5025924;28;21031;-26
2021/01/12 05:31:15;;;;;;;5.70;5.20;;;3.50;99.90;;;;;;5025116;28;20466;-26
2021/01/12 05:33:44;;;;;;;5.40;5.10;;;3.50;99.90;;;;;;5024310;28;20457;-26
2021/01/12 05:36:11;;;;;;;6.20;5.80;;;3.60;99.90;;;;;;5024913;28;20463;-26
2021/01/12 05:38:38;;;;;;;6.20;5.80;;;3.60;99.90;;;;;;5026841;28;20457;-26
2021/01/12 05:41:06;;;;;;;6.23;5.83;;;3.60;99.90;;;;;;5027945;28;20438;-26
2021/01/12 05:43:37;;;;;;;5.90;5.50;;;3.60;99.90;;;;;;5028659;28;21057;-26
2021/01/12 05:46:10;;;;;;;7.50;7.00;;;3.60;99.90;;;;;;5027143;28;20442;-26
2021/01/12 05:48:38;;;;;;;5.67;5.27;;;3.60;99.90;;;;;;5027490;28;20453;-26
2021/01/12 05:51:07;;;;;;;5.80;5.50;;;3.50;99.90;;;;;;5026982;28;20589;-26
2021/01/12 05:54:02;;;;;;;6.10;5.70;;;3.50;99.90;;;;;;5026255;28;20489;-26
2021/01/12 05:56:30;;;;;;;5.00;4.70;;;3.40;99.90;;;;;;5025780;28;20442;-26
2021/01/12 05:58:57;;;;;;;5.67;5.33;;;3.40;99.90;;;;;;5024121;28;20539;-26
2021/01/12 06:01:46;;;;;;;6.10;5.60;;;3.50;99.90;;;;;;5024058;28;20442;-26
2021/01/12 06:04:14;;;;;;;5.97;5.57;;;3.50;99.90;;;;;;5021849;28;20593;-26
2021/01/12 06:06:42;;;;;;;5.80;5.50;;;3.50;99.90;;;;;;5022176;28;20476;-26
2021/01/12 06:09:13;;;;;;;6.67;6.17;;;3.30;99.90;;;;;;5021241;28;21251;-26
2021/01/12 06:11:42;;;;;;;5.93;5.53;;;3.30;99.90;;;;;;5021312;28;20951;-26
2021/01/12 06:14:12;;;;;;;6.37;5.97;;;3.30;99.90;;;;;;5019510;28;21328;-26
2021/01/12 06:16:40;;;;;;;7.83;7.13;;;3.40;99.90;;;;;;5022517;28;20861;-26
2021/01/12 06:19:10;;;;;;;6.77;6.27;;;3.40;99.90;;;;;;5021307;28;20483;-26
2021/01/12 06:22:05;;;;;;;9.10;8.30;;;3.40;99.90;;;;;;5019002;28;20434;-26
2021/01/12 06:24:48;;;;;;;10.07;9.17;;;3.50;99.90;;;;;;5017473;28;20470;-26
2021/01/12 06:27:16;;;;;;;7.57;6.97;;;3.50;99.90;;;;;;5018049;28;21189;-26
2021/01/12 06:29:45;;;;;;;8.97;8.27;;;3.50;99.90;;;;;;5000519;28;20439;-26
2021/01/12 06:32:15;;;;;;;7.50;6.90;;;3.50;99.90;;;;;;5004671;28;20813;-26
2021/01/12 06:34:43;;;;;;;6.83;6.30;;;3.40;99.90;;;;;;5019777;28;20517;-25
2021/01/12 06:37:12;;;;;;;6.80;6.13;;;3.30;99.90;;;;;;5017685;28;20920;-25
2021/01/12 06:39:43;;;;;;;8.30;7.00;;;3.30;99.90;;;;;;5011209;28;20463;-25
2021/01/12 06:42:29;;;;;;;6.63;6.13;;;3.30;99.90;;;;;;5011375;28;20788;-25
2021/01/12 06:44:58;;;;;;;6.23;5.83;;;3.20;99.90;;;;;;5013066;28;20470;-25
2021/01/12 06:47:28;;;;;;;6.13;5.57;;;3.10;99.90;;;;;;5013625;28;20462;-25
2021/01/12 06:50:07;;;;;;;5.40;5.00;;;3.10;99.90;;;;;;5007949;28;20482;-25
2021/01/12 06:52:45;;;;;;;5.80;5.37;;;3.10;99.90;;;;;;4991478;28;20488;-25
2021/01/12 06:55:13;;;;;;;7.40;5.97;;;3.10;99.90;;;;;;4992818;28;20969;-25
2021/01/12 06:57:44;;;;;;;6.57;6.00;;;3.10;99.90;;;;;;4991638;28;20455;-25
2021/01/12 07:00:13;;;;;;;6.17;5.57;;;2.90;99.90;;;;;;4990268;28;20460;-25
2021/01/12 07:02:40;;;;;;;5.53;5.13;;;2.90;99.90;;;;;;4987876;28;20455;-26
2021/01/12 07:05:12;;;;;;;13.53;5.80;;;2.90;99.90;;;;;;4987360;28;20511;-25
2021/01/12 07:07:42;;;;;;;7.03;6.07;;;2.70;99.90;;;;;;4985399;28;20439;-25
2021/01/12 07:10:13;;;;;;;5.40;5.00;;;2.80;99.90;;;;;;4985946;28;20918;-25
2021/01/12 07:12:42;;;;;;;5.77;5.37;;;2.80;99.90;;;;;;4972024;28;20551;-25
2021/01/12 07:15:11;;;;;;;5.80;5.30;;;2.80;99.90;;;;;;4978929;28;20549;-31
2021/01/12 07:17:43;;;;;;;5.10;4.60;;;2.90;99.90;;;;;;4986293;28;20451;-25
2021/01/12 07:20:16;;;;;;;4.40;4.10;;;3.00;99.90;;;;;;4987946;28;20501;-25
2021/01/12 07:22:52;;;;;;;5.53;5.03;;;3.00;99.90;;;;;;4986837;28;20435;-25
2021/01/12 07:25:23;;;;;;;5.90;5.20;;;3.00;99.90;;;;;;4976733;28;20500;-25
2021/01/12 07:28:01;;;;;;;6.53;5.83;;;3.00;99.90;;;;;;4964701;28;20886;-25
2021/01/12 07:30:29;;;;;;;5.90;5.40;;;3.10;99.90;;;;;;4962880;28;20448;-25
2021/01/12 07:32:57;;;;;;;6.97;5.23;;;3.10;99.90;;;;;;4965183;28;20472;-25
2021/01/12 07:35:25;;;;;;;5.93;5.43;;;3.10;99.90;;;;;;4975249;28;20464;-25
2021/01/12 07:37:53;;;;;;;5.70;5.10;;;3.10;99.90;;;;;;4970873;28;20975;-25
2021/01/12 07:40:21;;;;;;;6.60;5.53;;;3.10;99.90;;;;;;4972558;28;20938;-25
2021/01/12 07:42:54;;;;;;;6.27;5.67;;;3.20;99.90;;;;;;4971524;28;20460;-25
2021/01/12 07:45:25;;;;;;;6.30;5.37;;;3.30;99.90;;;;;;4953258;28;20914;-25
2021/01/12 07:47:53;;;;;;;7.00;5.50;;;3.30;99.90;;;;;;4972026;28;20623;-25
2021/01/12 07:50:21;;;;;;;6.70;5.87;;;3.30;99.90;;;;;;4975022;28;20815;-25
2021/01/12 07:52:50;;;;;;;7.80;6.40;;;3.30;99.90;;;;;;4992969;28;20463;-25
2021/01/12 07:55:17;;;;;;;7.23;6.33;;;3.40;99.90;;;;;;4992818;28;20439;-25
2021/01/12 07:57:46;;;;;;;6.07;5.47;;;3.50;99.90;;;;;;4995168;28;20483;-25
2021/01/12 08:00:16;;;;;;;5.80;5.40;;;3.50;99.90;;;;;;4990392;28;20449;-25
2021/01/12 08:02:45;;;;;;;6.30;5.60;;;3.60;99.90;;;;;;4993547;28;20576;-25
2021/01/12 08:05:13;;;;;;;6.73;5.43;;;3.60;99.90;;;;;;4989269;28;20481;-25
2021/01/12 08:07:41;;;;;;;7.50;5.10;;;3.60;99.90;;;;;;4991760;28;20520;-25
2021/01/12 08:10:11;;;;;;;6.43;5.83;;;3.60;99.90;;;;;;4979184;28;20443;-25
2021/01/12 08:12:37;;;;;;;6.53;5.50;;;3.60;99.90;;;;;;4987170;28;20467;-25
2021/01/12 08:15:10;;;;;;;7.47;5.47;;;3.60;99.90;;;;;;4988545;28;20873;-25
2021/01/12 08:17:45;;;;;;;10.90;6.70;;;3.60;99.90;;;;;;4986957;28;20442;-25
2021/01/12 08:20:14;;;;;;;6.97;5.60;;;3.60;99.90;;;;;;4990619;28;20846;-25
2021/01/12 08:22:41;;;;;;;6.43;5.70;;;3.60;99.90;;;;;;4991104;28;20959;-25
2021/01/12 08:25:09;;;;;;;7.57;6.30;;;3.60;99.90;;;;;;4997556;28;20470;-25
2021/01/12 08:27:37;;;;;;;7.13;6.37;;;3.50;99.90;;;;;;4995769;28;21256;-25
2021/01/12 08:30:09;;;;;;;8.67;5.90;;;3.50;99.90;;;;;;4992508;28;20473;-25
2021/01/12 08:32:43;;;;;;;7.37;6.67;;;3.40;99.90;;;;;;4992413;28;20451;-25
2021/01/12 08:35:13;;;;;;;7.47;6.67;;;3.40;99.90;;;;;;4993154;28;20447;-25
2021/01/12 08:37:41;;;;;;;12.93;6.40;;;3.50;99.90;;;;;;4989846;28;20458;-25
2021/01/12 08:40:12;;;;;;;9.80;7.10;;;3.50;99.90;;;;;;4997819;28;20481;-25
2021/01/12 08:42:41;;;;;;;9.10;6.67;;;3.50;99.90;;;;;;4989306;28;20534;-25
2021/01/12 08:45:13;;;;;;;8.60;7.67;;;3.40;99.90;;;;;;4991580;28;20471;-25
2021/01/12 08:47:41;;;;;;;8.87;7.67;;;3.40;99.90;;;;;;4991098;28;20601;-25
2021/01/12 08:50:10;;;;;;;10.13;7.60;;;3.40;99.90;;;;;;4986912;28;20471;-25
2021/01/12 08:52:39;;;;;;;9.90;7.33;;;3.40;99.90;;;;;;4987916;28;20447;-25
2021/01/12 08:55:17;;;;;;;9.70;7.37;;;3.40;99.90;;;;;;4993255;28;20520;-25
2021/01/12 08:57:55;;;;;;;9.07;7.50;;;3.40;99.90;;;;;;4988947;28;20450;-25
2021/01/12 09:00:28;;;;;;;10.93;8.73;;;3.30;99.90;;;;;;4986638;28;20458;-25
2021/01/12 09:02:55;;;;;;;11.57;9.33;;;3.30;99.90;;;;;;4989559;28;20447;-25
2021/01/12 09:05:22;;;;;;;9.63;7.57;;;3.40;99.90;;;;;;4985421;28;21022;-25
2021/01/12 09:07:59;;;;;;;14.13;8.93;;;3.30;99.90;;;;;;4991811;28;20454;-25
2021/01/12 09:10:29;;;;;;;15.93;8.60;;;3.30;99.90;;;;;;4981775;28;20455;-25
2021/01/12 09:12:57;;;;;;;31.90;25.80;;;3.20;99.90;;;;;;4986898;28;20954;-25
2021/01/12 09:15:29;;;;;;;14.43;9.33;;;3.30;99.90;;;;;;4996635;28;20938;-25
2021/01/12 09:18:08;;;;;;;13.97;11.83;;;3.30;99.90;;;;;;4992103;28;20449;-25
2021/01/12 09:20:38;;;;;;;14.53;10.70;;;3.20;99.90;;;;;;4984074;28;20460;-25
2021/01/12 09:23:07;;;;;;;12.63;9.80;;;3.20;99.90;;;;;;4975739;28;21092;-25
2021/01/12 09:25:37;;;;;;;18.53;13.60;;;3.20;99.90;;;;;;4962865;28;20514;-25
2021/01/12 09:28:12;;;;;;;13.83;10.80;;;3.30;99.90;;;;;;4986194;28;20451;-25
2021/01/12 09:30:39;;;;;;;16.63;12.07;;;3.30;99.90;;;;;;4992718;28;20559;-25
2021/01/12 09:33:06;;;;;;;13.03;8.93;;;3.40;99.90;;;;;;4997700;28;20443;-25
2021/01/12 09:35:33;;;;;;;13.67;10.00;;;3.50;99.90;;;;;;4980928;28;20454;-25
2021/01/12 09:38:02;;;;;;;12.87;9.60;;;3.50;99.90;;;;;;4979938;28;20470;-25
2021/01/12 09:40:38;;;;;;;13.20;10.40;;;3.50;99.90;;;;;;4977152;28;20458;-25
2021/01/12 09:43:44;;;;;;;13.57;10.23;;;3.60;99.90;;;;;;4989073;28;20494;-25
2021/01/12 09:46:21;;;;;;;13.93;9.60;;;3.50;99.90;;;;;;4985387;28;20457;-25
2021/01/12 09:48:50;;;;;;;14.10;8.53;;;3.50;99.90;;;;;;4995697;28;20451;-25
2021/01/12 09:51:17;;;;;;;13.57;9.03;;;3.60;99.90;;;;;;4992903;28;20450;-25
2021/01/12 09:53:46;;;;;;;12.70;9.37;;;3.60;99.90;;;;;;5001410;28;20442;-25
2021/01/12 09:56:15;;;;;;;12.63;9.90;;;3.60;99.90;;;;;;4980878;28;20805;-25
2021/01/12 09:58:43;;;;;;;12.53;9.70;;;3.60;99.90;;;;;;4976740;28;20443;-25
2021/01/12 10:01:12;;;;;;;14.90;9.33;;;3.60;99.90;;;;;;4994073;28;20917;-25
2021/01/12 10:03:40;;;;;;;13.53;9.03;;;3.70;99.90;;;;;;4983240;28;20469;-25
2021/01/12 10:06:07;;;;;;;11.50;8.83;;;3.80;99.90;;;;;;4975436;28;20825;-25
2021/01/12 10:08:38;;;;;;;11.00;8.83;;;3.80;99.90;;;;;;4974339;28;21161;-25
2021/01/12 10:11:05;;;;;;;14.33;10.83;;;3.80;99.90;;;;;;4974468;28;20673;-26
2021/01/12 10:13:32;;;;;;;14.50;9.93;;;3.80;99.90;;;;;;4976695;28;20452;-26
2021/01/12 10:15:59;;;;;;;11.30;8.93;;;3.80;99.90;;;;;;4974014;28;20459;-26
2021/01/12 10:18:25;;;;;;;17.13;9.90;;;3.80;99.90;;;;;;4971440;28;20451;-26
2021/01/12 10:20:53;;;;;;;11.30;8.60;;;3.80;99.90;;;;;;4949327;28;20464;-26
2021/01/12 10:23:19;;;;;;;16.03;10.00;;;3.80;99.90;;;;;;4971192;28;20591;-26
2021/01/12 10:25:47;;;;;;;10.30;8.57;;;3.70;99.90;;;;;;4965955;28;20515;-26
2021/01/12 10:28:14;;;;;;;13.63;8.47;;;3.70;99.90;;;;;;4988918;28;20453;-26
2021/01/12 10:30:44;;;;;;;9.83;6.53;;;3.80;99.90;;;;;;4998656;28;20447;-26
2021/01/12 10:33:11;;;;;;;13.33;7.90;;;3.80;99.90;;;;;;4989627;28;20450;-26
2021/01/12 10:35:37;;;;;;;6.73;6.03;;;3.80;99.90;;;;;;4966065;28;20768;-26
2021/01/12 10:38:05;;;;;;;2.97;2.77;;;3.80;99.90;;;;;;4957948;28;20455;-26
2021/01/12 10:40:31;;;;;;;5.47;3.83;;;3.80;99.90;;;;;;4961876;28;20463;-26
2021/01/12 10:42:59;;;;;;;5.57;4.10;;;3.80;99.90;;;;;;4975947;28;21182;-26
2021/01/12 10:45:27;;;;;;;3.00;2.80;;;3.70;99.90;;;;;;4978821;28;20956;-26
2021/01/12 10:48:09;;;;;;;3.47;3.13;;;3.60;99.90;;;;;;4970816;28;20456;-26
2021/01/12 10:50:36;;;;;;;4.00;3.37;;;3.50;99.90;;;;;;4959446;28;20448;-26
2021/01/12 10:53:03;;;;;;;2.83;2.63;;;3.50;99.90;;;;;;4970612;28;20448;-26
2021/01/12 10:55:32;;;;;;;3.50;3.20;;;3.40;99.90;;;;;;4961214;28;20456;-26
2021/01/12 10:58:02;;;;;;;3.80;3.43;;;3.40;99.90;;;;;;4963702;28;20560;-26
2021/01/12 11:00:34;;;;;;;3.73;3.33;;;3.40;99.90;;;;;;4971987;28;20462;-26
2021/01/12 11:03:08;;;;;;;4.47;3.27;;;3.50;99.90;;;;;;4949818;28;20666;-26
2021/01/12 11:05:35;;;;;;;2.97;2.67;;;3.50;99.90;;;;;;4954319;28;20502;-26
2021/01/12 11:08:04;;;;;;;4.40;3.00;;;3.40;99.90;;;;;;4954490;28;20436;-26
2021/01/12 11:10:33;;;;;;;5.00;3.20;;;3.40;99.90;;;;;;4955947;28;20436;-26
2021/01/12 11:13:03;;;;;;;3.30;3.10;;;3.40;99.90;;;;;;4959377;28;20471;-26
2021/01/12 11:15:30;;;;;;;4.07;3.77;;;3.40;99.90;;;;;;4978098;28;20983;-26
2021/01/12 11:17:58;;;;;;;3.23;2.93;;;3.50;99.90;;;;;;4999437;28;20466;-26
2021/01/12 11:20:27;;;;;;;3.50;3.27;;;3.50;99.90;;;;;;4999105;28;20561;-26
2021/01/12 11:22:58;;;;;;;3.40;3.10;;;3.60;99.90;;;;;;4975321;28;21064;-26
2021/01/12 11:25:24;;;;;;;4.83;3.50;;;3.50;99.90;;;;;;4991524;28;20540;-26
2021/01/12 11:27:55;;;;;;;3.30;3.00;;;3.50;99.90;;;;;;4961706;28;20466;-26
2021/01/12 11:30:22;;;;;;;3.60;3.30;;;3.50;99.90;;;;;;4997240;28;20466;-26
2021/01/12 11:32:55;;;;;;;5.27;3.30;;;3.40;99.90;;;;;;4996777;28;20686;-26
2021/01/12 11:35:23;;;;;;;4.17;3.17;;;3.30;99.90;;;;;;4994236;28;20449;-26
2021/01/12 11:37:52;;;;;;;3.57;2.80;;;3.40;99.90;;;;;;4980584;28;20448;-26
2021/01/12 11:40:19;;;;;;;3.40;3.03;;;3.50;99.90;;;;;;4975399;28;20861;-26
2021/01/12 11:42:46;;;;;;;3.50;3.20;;;3.50;99.90;;;;;;4982667;28;21487;-26
2021/01/12 11:45:14;;;;;;;3.60;3.30;;;3.50;99.90;;;;;;4993947;28;21052;-26
2021/01/12 11:47:41;;;;;;;4.90;3.13;;;3.40;99.90;;;;;;4996265;28;20925;-26
2021/01/12 11:50:09;;;;;;;3.83;2.90;;;3.50;99.90;;;;;;4974262;28;20554;-26
2021/01/12 11:52:39;;;;;;;2.77;2.57;;;3.60;99.90;;;;;;4978963;28;20431;-26
2021/01/12 11:55:09;;;;;;;2.83;2.60;;;3.50;99.90;;;;;;4958577;28;21208;-26
2021/01/12 11:57:35;;;;;;;2.70;2.50;;;3.50;99.90;;;;;;4978152;28;20442;-26
2021/01/12 12:00:05;;;;;;;2.97;2.70;;;3.40;99.90;;;;;;4983624;28;20456;-35
2021/01/12 12:02:33;;;;;;;3.60;3.40;;;3.40;99.90;;;;;;4996120;28;20468;-26
2021/01/12 12:05:01;;;;;;;3.93;3.00;;;3.50;99.90;;;;;;4997883;28;20470;-26
2021/01/12 12:07:28;;;;;;;3.30;3.10;;;3.30;99.90;;;;;;4999798;28;20446;-26
2021/01/12 12:09:55;;;;;;;7.53;4.67;;;3.20;99.90;;;;;;4999155;28;20454;-26
2021/01/12 12:12:22;;;;;;;4.60;4.20;;;3.30;99.90;;;;;;5002394;28;20443;-26
2021/01/12 12:14:52;;;;;;;6.50;3.90;;;3.30;99.90;;;;;;5003004;28;20454;-27
2021/01/12 12:17:19;;;;;;;4.00;2.80;;;3.50;99.90;;;;;;4979826;28;20498;-25
2021/01/12 12:19:47;;;;;;;4.30;3.70;;;3.40;99.90;;;;;;5003880;28;20975;-25
2021/01/12 12:22:15;;;;;;;7.93;7.00;;;3.40;99.90;;;;;;4982354;28;20539;-26
2021/01/12 12:24:41;;;;;;;2.57;2.37;;;3.40;99.90;;;;;;4973257;28;20919;-24
2021/01/12 12:27:09;;;;;;;3.00;2.70;;;3.40;99.90;;;;;;4974859;28;20558;-28
2021/01/12 12:29:36;;;;;;;3.70;3.03;;;3.30;99.90;;;;;;4979260;28;21232;-27
2021/01/12 12:32:06;;;;;;;11.30;9.90;;;3.30;99.90;;;;;;4977591;28;21417;-27
2021/01/12 12:34:33;;;;;;;3.10;2.90;;;3.40;99.90;;;;;;4995173;28;20443;-26
2021/01/12 12:37:00;;;;;;;13.30;7.30;;;3.40;99.90;;;;;;4981642;28;20447;-26
2021/01/12 12:39:27;;;;;;;5.93;5.33;;;3.40;99.90;;;;;;4980512;28;20515;-26
2021/01/12 12:41:54;;;;;;;6.23;5.57;;;3.40;99.90;;;;;;4996955;28;20451;-26
2021/01/12 12:44:21;;;;;;;3.57;2.63;;;3.50;99.90;;;;;;4991497;28;20475;-26
2021/01/12 12:46:48;;;;;;;4.23;3.60;;;3.60;99.90;;;;;;4981567;28;20443;-26
2021/01/12 12:49:15;;;;;;;3.47;2.90;;;3.50;99.90;;;;;;4984699;28;20940;-26
2021/01/12 12:51:47;;;;;;;2.70;2.50;;;3.50;99.90;;;;;;4999961;28;20450;-26
2021/01/12 12:54:19;;;;;;;2.67;2.43;;;3.40;99.90;;;;;;4991661;28;20792;-26
2021/01/12 12:56:51;;;;;;;3.57;2.73;;;3.50;99.90;;;;;;4990262;28;20784;-26
2021/01/12 12:59:18;;;;;;;2.23;2.10;;;3.60;99.90;;;;;;4982765;28;20442;-26
2021/01/12 13:04:46;;;;;;;4.23;3.63;;;3.60;99.90;;;;;;4972666;28;20594;-26
2021/01/12 13:07:13;;;;;;;5.23;4.00;;;3.60;99.90;;;;;;4972115;28;20497;-26